sensor_id;sensor_type;location;lat;lon;timestamp;P1;durP1;ratioP1;P2;durP2;ratioP2
10116;SDS011;5098;48.792;9.012;2022-09-12T00:00:26;9.97;;;9.07;;
10116;SDS011;5098;48.792;9.012;2022-09-12T00:02:53;10.23;;;9.27;;
10116;SDS011;5098;48.792;9.012;2022-09-12T00:05:19;8.90;;;8.10;;
10116;SDS011;5098;48.792;9.012;2022-09-12T00:07:45;10.13;;;9.13;;
10116;SDS011;5098;48.792;9.012;2022-09-12T00:10:11;10.87;;;9.10;;
10116;SDS011;5098;48.792;9.012;2022-09-12T00:12:38;9.70;;;8.67;;
10116;SDS011;5098;48.792;9.012;2022-09-12T00:15:04;8.93;;;8.03;;
10116;SDS011;5098;48.792;9.012;2022-09-12T00:17:32;11.83;;;9.10;;
10116;SDS011;5098;48.792;9.012;2022-09-12T00:19:59;9.37;;;8.50;;
10116;SDS011;5098;48.792;9.012;2022-09-12T00:22:25;10.00;;;9.00;;
10116;SDS011;5098;48.792;9.012;2022-09-12T00:24:51;10.23;;;9.23;;
10116;SDS011;5098;48.792;9.012;2022-09-12T00:27:17;10.10;;;9.20;;
10116;SDS011;5098;48.792;9.012;2022-09-12T00:29:43;9.03;;;8.23;;
10116;SDS011;5098;48.792;9.012;2022-09-12T00:32:09;13.17;;;9.37;;
10116;SDS011;5098;48.792;9.012;2022-09-12T00:34:35;9.97;;;9.07;;
10116;SDS011;5098;48.792;9.012;2022-09-12T00:37:02;10.83;;;9.20;;
10116;SDS011;5098;48.792;9.012;2022-09-12T00:39:28;12.53;;;10.03;;
10116;SDS011;5098;48.792;9.012;2022-09-12T00:41:54;11.07;;;9.03;;
10116;SDS011;5098;48.792;9.012;2022-09-12T00:47:05;10.77;;;9.67;;
10116;SDS011;5098;48.792;9.012;2022-09-12T00:52:07;11.67;;;10.57;;
10116;SDS011;5098;48.792;9.012;2022-09-12T00:54:36;12.13;;;10.93;;
10116;SDS011;5098;48.792;9.012;2022-09-12T00:57:04;13.33;;;10.70;;
10116;SDS011;5098;48.792;9.012;2022-09-12T00:59:33;14.13;;;11.97;;
10116;SDS011;5098;48.792;9.012;2022-09-12T01:02:00;12.13;;;10.63;;
10116;SDS011;5098;48.792;9.012;2022-09-12T01:04:26;11.10;;;10.10;;
10116;SDS011;5098;48.792;9.012;2022-09-12T01:06:52;12.10;;;10.77;;
10116;SDS011;5098;48.792;9.012;2022-09-12T01:09:21;11.57;;;10.43;;
10116;SDS011;5098;48.792;9.012;2022-09-12T01:11:47;11.63;;;10.43;;
10116;SDS011;5098;48.792;9.012;2022-09-12T01:14:15;10.90;;;9.90;;
10116;SDS011;5098;48.792;9.012;2022-09-12T01:16:41;11.73;;;10.53;;
10116;SDS011;5098;48.792;9.012;2022-09-12T01:21:47;11.93;;;10.83;;
10116;SDS011;5098;48.792;9.012;2022-09-12T01:37:25;12.60;;;10.87;;
10116;SDS011;5098;48.792;9.012;2022-09-12T01:42:28;12.70;;;11.40;;
10116;SDS011;5098;48.792;9.012;2022-09-12T01:44:59;11.70;;;10.60;;
10116;SDS011;5098;48.792;9.012;2022-09-12T01:54:50;11.20;;;10.13;;
10116;SDS011;5098;48.792;9.012;2022-09-12T01:57:19;10.90;;;9.80;;
10116;SDS011;5098;48.792;9.012;2022-09-12T01:59:50;12.23;;;9.90;;
10116;SDS011;5098;48.792;9.012;2022-09-12T02:02:34;12.33;;;10.20;;
10116;SDS011;5098;48.792;9.012;2022-09-12T02:07:31;10.87;;;9.33;;
10116;SDS011;5098;48.792;9.012;2022-09-12T02:10:02;10.80;;;9.80;;
10116;SDS011;5098;48.792;9.012;2022-09-12T02:12:33;9.73;;;8.77;;
10116;SDS011;5098;48.792;9.012;2022-09-12T02:15:02;10.30;;;9.20;;
10116;SDS011;5098;48.792;9.012;2022-09-12T02:17:29;12.20;;;9.93;;
10116;SDS011;5098;48.792;9.012;2022-09-12T02:19:59;10.43;;;9.43;;
10116;SDS011;5098;48.792;9.012;2022-09-12T02:22:26;9.83;;;8.83;;
10116;SDS011;5098;48.792;9.012;2022-09-12T02:24:53;10.30;;;9.30;;
10116;SDS011;5098;48.792;9.012;2022-09-12T02:27:21;11.63;;;10.30;;
10116;SDS011;5098;48.792;9.012;2022-09-12T02:29:49;11.50;;;10.40;;
10116;SDS011;5098;48.792;9.012;2022-09-12T02:32:19;10.83;;;9.60;;
10116;SDS011;5098;48.792;9.012;2022-09-12T02:34:49;10.97;;;9.97;;
10116;SDS011;5098;48.792;9.012;2022-09-12T02:39:58;11.20;;;9.43;;
10116;SDS011;5098;48.792;9.012;2022-09-12T02:42:25;10.30;;;9.30;;
10116;SDS011;5098;48.792;9.012;2022-09-12T02:44:51;10.67;;;9.60;;
10116;SDS011;5098;48.792;9.012;2022-09-12T02:47:28;10.70;;;9.60;;
10116;SDS011;5098;48.792;9.012;2022-09-12T02:49:56;9.83;;;8.83;;
10116;SDS011;5098;48.792;9.012;2022-09-12T02:52:23;9.63;;;8.70;;
10116;SDS011;5098;48.792;9.012;2022-09-12T02:54:49;10.40;;;8.50;;
10116;SDS011;5098;48.792;9.012;2022-09-12T02:57:16;11.30;;;9.70;;
10116;SDS011;5098;48.792;9.012;2022-09-12T02:59:42;10.40;;;9.40;;
10116;SDS011;5098;48.792;9.012;2022-09-12T03:04:53;10.87;;;9.80;;
10116;SDS011;5098;48.792;9.012;2022-09-12T03:07:41;10.80;;;9.73;;
10116;SDS011;5098;48.792;9.012;2022-09-12T03:10:18;11.97;;;10.00;;
10116;SDS011;5098;48.792;9.012;2022-09-12T03:15:41;13.43;;;9.43;;
10116;SDS011;5098;48.792;9.012;2022-09-12T03:18:17;11.30;;;10.10;;
10116;SDS011;5098;48.792;9.012;2022-09-12T03:23:24;10.70;;;9.60;;
10116;SDS011;5098;48.792;9.012;2022-09-12T03:26:30;11.77;;;9.80;;
10116;SDS011;5098;48.792;9.012;2022-09-12T03:28:46;14.17;;;8.00;;
10116;SDS011;5098;48.792;9.012;2022-09-12T03:31:14;15.03;;;10.37;;
10116;SDS011;5098;48.792;9.012;2022-09-12T03:33:40;11.03;;;9.57;;
10116;SDS011;5098;48.792;9.012;2022-09-12T03:36:11;13.07;;;10.10;;
10116;SDS011;5098;48.792;9.012;2022-09-12T03:38:39;12.70;;;11.37;;
10116;SDS011;5098;48.792;9.012;2022-09-12T03:41:05;11.60;;;10.40;;
10116;SDS011;5098;48.792;9.012;2022-09-12T03:43:31;12.10;;;9.67;;
10116;SDS011;5098;48.792;9.012;2022-09-12T03:45:57;11.47;;;9.83;;
10116;SDS011;5098;48.792;9.012;2022-09-12T03:48:23;11.60;;;9.83;;
10116;SDS011;5098;48.792;9.012;2022-09-12T03:50:49;12.10;;;10.30;;
10116;SDS011;5098;48.792;9.012;2022-09-12T03:53:15;12.13;;;9.60;;
10116;SDS011;5098;48.792;9.012;2022-09-12T03:55:41;10.90;;;9.67;;
10116;SDS011;5098;48.792;9.012;2022-09-12T03:58:07;14.20;;;9.80;;
10116;SDS011;5098;48.792;9.012;2022-09-12T04:00:33;12.63;;;10.53;;
10116;SDS011;5098;48.792;9.012;2022-09-12T04:02:59;9.63;;;8.73;;
10116;SDS011;5098;48.792;9.012;2022-09-12T04:05:25;9.80;;;8.90;;
10116;SDS011;5098;48.792;9.012;2022-09-12T04:07:51;12.23;;;9.00;;
10116;SDS011;5098;48.792;9.012;2022-09-12T04:10:18;9.93;;;8.93;;
10116;SDS011;5098;48.792;9.012;2022-09-12T04:12:44;11.27;;;8.83;;
10116;SDS011;5098;48.792;9.012;2022-09-12T04:15:10;10.10;;;9.13;;
10116;SDS011;5098;48.792;9.012;2022-09-12T04:17:36;12.27;;;10.77;;
10116;SDS011;5098;48.792;9.012;2022-09-12T04:20:02;9.60;;;8.70;;
10116;SDS011;5098;48.792;9.012;2022-09-12T04:22:28;14.53;;;7.93;;
10116;SDS011;5098;48.792;9.012;2022-09-12T04:24:55;9.47;;;8.40;;
10116;SDS011;5098;48.792;9.012;2022-09-12T04:27:22;10.87;;;9.03;;
10116;SDS011;5098;48.792;9.012;2022-09-12T04:29:48;10.80;;;8.50;;
10116;SDS011;5098;48.792;9.012;2022-09-12T04:32:14;9.07;;;8.17;;
10116;SDS011;5098;48.792;9.012;2022-09-12T04:34:40;9.43;;;8.53;;
10116;SDS011;5098;48.792;9.012;2022-09-12T04:37:06;9.63;;;8.47;;
10116;SDS011;5098;48.792;9.012;2022-09-12T04:39:32;10.40;;;9.30;;
10116;SDS011;5098;48.792;9.012;2022-09-12T04:41:58;12.50;;;9.07;;
10116;SDS011;5098;48.792;9.012;2022-09-12T04:44:24;12.10;;;9.23;;
10116;SDS011;5098;48.792;9.012;2022-09-12T04:46:50;11.97;;;10.47;;
10116;SDS011;5098;48.792;9.012;2022-09-12T04:49:16;11.17;;;9.00;;
10116;SDS011;5098;48.792;9.012;2022-09-12T04:51:43;10.27;;;9.27;;
10116;SDS011;5098;48.792;9.012;2022-09-12T04:54:11;11.60;;;10.40;;
10116;SDS011;5098;48.792;9.012;2022-09-12T04:56:38;10.70;;;9.60;;
10116;SDS011;5098;48.792;9.012;2022-09-12T04:59:05;11.00;;;9.80;;
10116;SDS011;5098;48.792;9.012;2022-09-12T05:01:32;13.43;;;8.90;;
10116;SDS011;5098;48.792;9.012;2022-09-12T05:03:59;12.13;;;10.03;;
10116;SDS011;5098;48.792;9.012;2022-09-12T05:06:30;12.40;;;10.07;;
10116;SDS011;5098;48.792;9.012;2022-09-12T05:08:56;12.23;;;10.93;;
10116;SDS011;5098;48.792;9.012;2022-09-12T05:11:24;13.27;;;10.13;;
10116;SDS011;5098;48.792;9.012;2022-09-12T05:13:50;11.13;;;9.87;;
10116;SDS011;5098;48.792;9.012;2022-09-12T05:16:17;11.17;;;10.10;;
10116;SDS011;5098;48.792;9.012;2022-09-12T05:18:43;13.17;;;11.40;;
10116;SDS011;5098;48.792;9.012;2022-09-12T05:21:11;22.50;;;20.27;;
10116;SDS011;5098;48.792;9.012;2022-09-12T05:23:37;18.80;;;17.00;;
10116;SDS011;5098;48.792;9.012;2022-09-12T05:26:04;15.60;;;13.47;;
10116;SDS011;5098;48.792;9.012;2022-09-12T05:28:31;17.03;;;14.00;;
10116;SDS011;5098;48.792;9.012;2022-09-12T05:30:59;11.80;;;10.50;;
10116;SDS011;5098;48.792;9.012;2022-09-12T05:33:25;10.03;;;9.03;;
10116;SDS011;5098;48.792;9.012;2022-09-12T05:35:51;8.30;;;7.50;;
10116;SDS011;5098;48.792;9.012;2022-09-12T05:38:18;8.80;;;7.90;;
10116;SDS011;5098;48.792;9.012;2022-09-12T05:40:44;8.23;;;7.43;;
10116;SDS011;5098;48.792;9.012;2022-09-12T05:43:10;9.47;;;6.90;;
10116;SDS011;5098;48.792;9.012;2022-09-12T05:45:36;8.00;;;7.37;;
10116;SDS011;5098;48.792;9.012;2022-09-12T05:48:03;11.80;;;7.70;;
10116;SDS011;5098;48.792;9.012;2022-09-12T05:50:29;8.40;;;7.70;;
10116;SDS011;5098;48.792;9.012;2022-09-12T05:52:58;8.23;;;6.33;;
10116;SDS011;5098;48.792;9.012;2022-09-12T05:55:24;7.70;;;7.10;;
10116;SDS011;5098;48.792;9.012;2022-09-12T05:57:50;7.17;;;5.77;;
10116;SDS011;5098;48.792;9.012;2022-09-12T06:00:17;7.17;;;6.30;;
10116;SDS011;5098;48.792;9.012;2022-09-12T06:02:44;6.50;;;5.90;;
10116;SDS011;5098;48.792;9.012;2022-09-12T06:05:15;11.10;;;6.00;;
10116;SDS011;5098;48.792;9.012;2022-09-12T06:07:44;9.17;;;5.33;;
10116;SDS011;5098;48.792;9.012;2022-09-12T06:10:10;7.40;;;6.17;;
10116;SDS011;5098;48.792;9.012;2022-09-12T06:12:36;8.70;;;6.13;;
10116;SDS011;5098;48.792;9.012;2022-09-12T06:15:02;7.17;;;6.10;;
10116;SDS011;5098;48.792;9.012;2022-09-12T06:17:28;6.13;;;5.47;;
10116;SDS011;5098;48.792;9.012;2022-09-12T06:19:54;8.33;;;6.40;;
10116;SDS011;5098;48.792;9.012;2022-09-12T06:22:20;5.93;;;5.43;;
10116;SDS011;5098;48.792;9.012;2022-09-12T06:24:47;6.97;;;6.07;;
10116;SDS011;5098;48.792;9.012;2022-09-12T06:27:13;7.10;;;6.27;;
10116;SDS011;5098;48.792;9.012;2022-09-12T06:29:39;7.70;;;6.80;;
10116;SDS011;5098;48.792;9.012;2022-09-12T06:32:05;7.57;;;6.93;;
10116;SDS011;5098;48.792;9.012;2022-09-12T06:34:31;9.23;;;5.93;;
10116;SDS011;5098;48.792;9.012;2022-09-12T06:36:57;7.47;;;6.17;;
10116;SDS011;5098;48.792;9.012;2022-09-12T06:39:23;8.70;;;5.73;;
10116;SDS011;5098;48.792;9.012;2022-09-12T06:41:50;7.37;;;5.43;;
10116;SDS011;5098;48.792;9.012;2022-09-12T06:44:17;7.47;;;6.70;;
10116;SDS011;5098;48.792;9.012;2022-09-12T06:46:44;7.00;;;6.40;;
10116;SDS011;5098;48.792;9.012;2022-09-12T06:49:10;8.70;;;6.83;;
10116;SDS011;5098;48.792;9.012;2022-09-12T06:51:36;9.23;;;6.43;;
10116;SDS011;5098;48.792;9.012;2022-09-12T06:54:03;7.43;;;6.53;;
10116;SDS011;5098;48.792;9.012;2022-09-12T06:56:29;9.73;;;6.60;;
10116;SDS011;5098;48.792;9.012;2022-09-12T06:58:56;10.37;;;6.17;;
10116;SDS011;5098;48.792;9.012;2022-09-12T07:01:29;7.20;;;6.47;;
10116;SDS011;5098;48.792;9.012;2022-09-12T07:03:56;8.87;;;6.47;;
10116;SDS011;5098;48.792;9.012;2022-09-12T07:06:24;8.50;;;6.63;;
10116;SDS011;5098;48.792;9.012;2022-09-12T07:08:55;7.57;;;6.87;;
10116;SDS011;5098;48.792;9.012;2022-09-12T07:11:23;8.67;;;7.47;;
10116;SDS011;5098;48.792;9.012;2022-09-12T07:13:54;8.23;;;6.90;;
10116;SDS011;5098;48.792;9.012;2022-09-12T07:16:20;7.00;;;6.20;;
10116;SDS011;5098;48.792;9.012;2022-09-12T07:18:51;8.27;;;7.00;;
10116;SDS011;5098;48.792;9.012;2022-09-12T07:21:17;11.30;;;6.27;;
10116;SDS011;5098;48.792;9.012;2022-09-12T07:23:43;8.07;;;6.40;;
10116;SDS011;5098;48.792;9.012;2022-09-12T07:26:10;6.20;;;5.33;;
10116;SDS011;5098;48.792;9.012;2022-09-12T07:28:36;7.80;;;6.57;;
10116;SDS011;5098;48.792;9.012;2022-09-12T07:31:06;7.23;;;6.60;;
10116;SDS011;5098;48.792;9.012;2022-09-12T07:33:33;6.80;;;6.20;;
10116;SDS011;5098;48.792;9.012;2022-09-12T07:36:00;8.00;;;6.30;;
10116;SDS011;5098;48.792;9.012;2022-09-12T07:38:26;6.60;;;5.20;;
10116;SDS011;5098;48.792;9.012;2022-09-12T07:40:52;6.70;;;6.03;;
10116;SDS011;5098;48.792;9.012;2022-09-12T07:43:18;6.17;;;5.60;;
10116;SDS011;5098;48.792;9.012;2022-09-12T07:45:44;5.97;;;5.37;;
10116;SDS011;5098;48.792;9.012;2022-09-12T07:48:10;5.90;;;5.40;;
10116;SDS011;5098;48.792;9.012;2022-09-12T07:50:36;5.40;;;4.90;;
10116;SDS011;5098;48.792;9.012;2022-09-12T07:53:03;5.60;;;5.00;;
10116;SDS011;5098;48.792;9.012;2022-09-12T07:55:29;6.03;;;5.00;;
10116;SDS011;5098;48.792;9.012;2022-09-12T07:57:56;5.63;;;5.23;;
10116;SDS011;5098;48.792;9.012;2022-09-12T08:00:22;4.67;;;4.27;;
10116;SDS011;5098;48.792;9.012;2022-09-12T08:02:51;4.80;;;4.30;;
10116;SDS011;5098;48.792;9.012;2022-09-12T08:05:18;5.20;;;4.70;;
10116;SDS011;5098;48.792;9.012;2022-09-12T08:07:44;4.30;;;3.90;;
10116;SDS011;5098;48.792;9.012;2022-09-12T08:10:11;3.90;;;3.60;;
10116;SDS011;5098;48.792;9.012;2022-09-12T08:12:37;5.53;;;3.90;;
10116;SDS011;5098;48.792;9.012;2022-09-12T08:15:03;3.93;;;3.53;;
10116;SDS011;5098;48.792;9.012;2022-09-12T08:17:29;4.77;;;3.40;;
10116;SDS011;5098;48.792;9.012;2022-09-12T08:19:55;4.10;;;3.70;;
10116;SDS011;5098;48.792;9.012;2022-09-12T08:22:21;4.00;;;3.00;;
10116;SDS011;5098;48.792;9.012;2022-09-12T08:24:48;3.53;;;3.23;;
10116;SDS011;5098;48.792;9.012;2022-09-12T08:27:14;3.93;;;3.20;;
10116;SDS011;5098;48.792;9.012;2022-09-12T08:29:40;11.47;;;10.30;;
10116;SDS011;5098;48.792;9.012;2022-09-12T08:32:07;4.13;;;3.00;;
10116;SDS011;5098;48.792;9.012;2022-09-12T08:34:33;4.97;;;4.50;;
10116;SDS011;5098;48.792;9.012;2022-09-12T08:36:59;2.70;;;2.50;;
10116;SDS011;5098;48.792;9.012;2022-09-12T08:39:25;2.83;;;2.63;;
10116;SDS011;5098;48.792;9.012;2022-09-12T08:41:59;2.80;;;2.20;;
10116;SDS011;5098;48.792;9.012;2022-09-12T08:49:44;1.97;;;1.87;;
10116;SDS011;5098;48.792;9.012;2022-09-12T08:52:20;2.40;;;2.20;;
10116;SDS011;5098;48.792;9.012;2022-09-12T08:54:47;4.60;;;2.53;;
10116;SDS011;5098;48.792;9.012;2022-09-12T08:57:14;2.83;;;2.37;;
10116;SDS011;5098;48.792;9.012;2022-09-12T08:59:41;2.67;;;2.47;;
10116;SDS011;5098;48.792;9.012;2022-09-12T09:05:13;2.70;;;2.20;;
10116;SDS011;5098;48.792;9.012;2022-09-12T09:16:11;2.37;;;2.17;;
10116;SDS011;5098;48.792;9.012;2022-09-12T09:18:39;2.60;;;2.40;;
10116;SDS011;5098;48.792;9.012;2022-09-12T09:21:09;2.20;;;2.00;;
10116;SDS011;5098;48.792;9.012;2022-09-12T09:23:41;3.13;;;2.13;;
10116;SDS011;5098;48.792;9.012;2022-09-12T09:26:14;2.47;;;2.27;;
10116;SDS011;5098;48.792;9.012;2022-09-12T09:28:46;2.33;;;2.13;;
10116;SDS011;5098;48.792;9.012;2022-09-12T09:31:16;4.87;;;2.60;;
10116;SDS011;5098;48.792;9.012;2022-09-12T09:33:42;2.10;;;1.90;;
10116;SDS011;5098;48.792;9.012;2022-09-12T09:36:22;2.40;;;2.20;;
10116;SDS011;5098;48.792;9.012;2022-09-12T09:43:52;2.77;;;2.57;;
10116;SDS011;5098;48.792;9.012;2022-09-12T09:46:18;2.60;;;2.40;;
10116;SDS011;5098;48.792;9.012;2022-09-12T09:48:47;2.33;;;2.10;;
10116;SDS011;5098;48.792;9.012;2022-09-12T09:51:20;2.50;;;2.30;;
10116;SDS011;5098;48.792;9.012;2022-09-12T09:53:56;3.13;;;2.30;;
10116;SDS011;5098;48.792;9.012;2022-09-12T09:58:54;2.60;;;2.40;;
10116;SDS011;5098;48.792;9.012;2022-09-12T10:01:20;3.13;;;2.43;;
10116;SDS011;5098;48.792;9.012;2022-09-12T10:03:50;2.63;;;2.43;;
10116;SDS011;5098;48.792;9.012;2022-09-12T10:08:46;2.43;;;2.23;;
10116;SDS011;5098;48.792;9.012;2022-09-12T10:11:17;3.10;;;2.33;;
10116;SDS011;5098;48.792;9.012;2022-09-12T10:16:18;2.27;;;1.90;;
10116;SDS011;5098;48.792;9.012;2022-09-12T10:18:45;2.13;;;1.93;;
10116;SDS011;5098;48.792;9.012;2022-09-12T10:21:16;2.40;;;2.13;;
10116;SDS011;5098;48.792;9.012;2022-09-12T10:23:43;3.57;;;2.10;;
10116;SDS011;5098;48.792;9.012;2022-09-12T10:26:14;2.60;;;2.30;;
10116;SDS011;5098;48.792;9.012;2022-09-12T10:28:45;2.23;;;2.03;;
10116;SDS011;5098;48.792;9.012;2022-09-12T10:31:15;3.17;;;2.23;;
10116;SDS011;5098;48.792;9.012;2022-09-12T10:33:47;2.27;;;2.10;;
10116;SDS011;5098;48.792;9.012;2022-09-12T10:36:17;2.73;;;2.10;;
10116;SDS011;5098;48.792;9.012;2022-09-12T10:38:50;2.10;;;1.90;;
10116;SDS011;5098;48.792;9.012;2022-09-12T10:41:17;2.37;;;2.17;;
10116;SDS011;5098;48.792;9.012;2022-09-12T10:43:44;1.93;;;1.73;;
10116;SDS011;5098;48.792;9.012;2022-09-12T10:48:40;2.17;;;1.97;;
10116;SDS011;5098;48.792;9.012;2022-09-12T10:51:14;1.87;;;1.70;;
10116;SDS011;5098;48.792;9.012;2022-09-12T10:53:51;2.77;;;1.97;;
10116;SDS011;5098;48.792;9.012;2022-09-12T10:56:22;3.37;;;2.10;;
10116;SDS011;5098;48.792;9.012;2022-09-12T11:12:37;1.53;;;1.43;;
10116;SDS011;5098;48.792;9.012;2022-09-12T11:25:48;2.20;;;2.00;;
10116;SDS011;5098;48.792;9.012;2022-09-12T11:35:48;2.40;;;1.70;;
10116;SDS011;5098;48.792;9.012;2022-09-12T11:41:01;1.60;;;1.50;;
10116;SDS011;5098;48.792;9.012;2022-09-12T11:45:55;2.20;;;1.83;;
10116;SDS011;5098;48.792;9.012;2022-09-12T11:51:14;1.90;;;1.70;;
10116;SDS011;5098;48.792;9.012;2022-09-12T11:53:42;1.73;;;1.63;;
10116;SDS011;5098;48.792;9.012;2022-09-12T11:56:13;1.60;;;1.50;;
10116;SDS011;5098;48.792;9.012;2022-09-12T11:58:41;1.67;;;1.57;;
10116;SDS011;5098;48.792;9.012;2022-09-12T12:01:11;3.17;;;2.50;;
10116;SDS011;5098;48.792;9.012;2022-09-12T12:06:06;1.67;;;1.57;;
10116;SDS011;5098;48.792;9.012;2022-09-12T12:08:36;2.33;;;1.50;;
10116;SDS011;5098;48.792;9.012;2022-09-12T12:11:04;1.60;;;1.50;;
10116;SDS011;5098;48.792;9.012;2022-09-12T12:13:33;2.13;;;1.60;;
10116;SDS011;5098;48.792;9.012;2022-09-12T12:16:12;1.90;;;1.60;;
10116;SDS011;5098;48.792;9.012;2022-09-12T12:18:39;1.80;;;1.50;;
10116;SDS011;5098;48.792;9.012;2022-09-12T12:21:20;2.63;;;1.47;;
10116;SDS011;5098;48.792;9.012;2022-09-12T12:36:53;1.70;;;1.60;;
10116;SDS011;5098;48.792;9.012;2022-09-12T12:41:58;1.63;;;1.53;;
10116;SDS011;5098;48.792;9.012;2022-09-12T12:47:14;1.67;;;1.57;;
10116;SDS011;5098;48.792;9.012;2022-09-12T12:49:42;1.57;;;1.40;;
10116;SDS011;5098;48.792;9.012;2022-09-12T12:52:15;2.10;;;1.57;;
10116;SDS011;5098;48.792;9.012;2022-09-12T13:00:14;1.83;;;1.40;;
10116;SDS011;5098;48.792;9.012;2022-09-12T13:03:36;2.50;;;1.47;;
10116;SDS011;5098;48.792;9.012;2022-09-12T13:10:47;2.10;;;1.73;;
10116;SDS011;5098;48.792;9.012;2022-09-12T13:13:19;1.97;;;1.53;;
10116;SDS011;5098;48.792;9.012;2022-09-12T13:15:49;1.57;;;1.47;;
10116;SDS011;5098;48.792;9.012;2022-09-12T13:18:17;1.50;;;1.30;;
10116;SDS011;5098;48.792;9.012;2022-09-12T13:23:27;1.53;;;1.43;;
10116;SDS011;5098;48.792;9.012;2022-09-12T13:25:57;1.60;;;1.50;;
10116;SDS011;5098;48.792;9.012;2022-09-12T13:28:24;1.80;;;1.50;;
10116;SDS011;5098;48.792;9.012;2022-09-12T13:44:02;2.10;;;1.60;;
10116;SDS011;5098;48.792;9.012;2022-09-12T13:46:30;2.23;;;2.03;;
10116;SDS011;5098;48.792;9.012;2022-09-12T13:48:58;1.63;;;1.33;;
10116;SDS011;5098;48.792;9.012;2022-09-12T13:51:27;4.03;;;2.23;;
10116;SDS011;5098;48.792;9.012;2022-09-12T13:53:55;1.60;;;1.33;;
10116;SDS011;5098;48.792;9.012;2022-09-12T13:56:22;1.50;;;1.23;;
10116;SDS011;5098;48.792;9.012;2022-09-12T13:58:55;3.23;;;1.70;;
10116;SDS011;5098;48.792;9.012;2022-09-12T14:01:22;1.47;;;1.37;;
10116;SDS011;5098;48.792;9.012;2022-09-12T14:03:49;3.90;;;1.70;;
10116;SDS011;5098;48.792;9.012;2022-09-12T14:06:48;1.53;;;1.30;;
10116;SDS011;5098;48.792;9.012;2022-09-12T14:09:15;1.67;;;1.37;;
10116;SDS011;5098;48.792;9.012;2022-09-12T14:11:46;3.80;;;1.63;;
10116;SDS011;5098;48.792;9.012;2022-09-12T14:14:19;1.73;;;1.30;;
10116;SDS011;5098;48.792;9.012;2022-09-12T14:16:49;1.87;;;1.60;;
10116;SDS011;5098;48.792;9.012;2022-09-12T14:19:16;1.27;;;1.17;;
10116;SDS011;5098;48.792;9.012;2022-09-12T14:21:43;1.50;;;1.37;;
10116;SDS011;5098;48.792;9.012;2022-09-12T14:24:09;1.73;;;1.60;;
10116;SDS011;5098;48.792;9.012;2022-09-12T14:26:37;5.00;;;4.60;;
10116;SDS011;5098;48.792;9.012;2022-09-12T14:29:05;2.17;;;1.97;;
10116;SDS011;5098;48.792;9.012;2022-09-12T14:31:33;1.50;;;1.40;;
10116;SDS011;5098;48.792;9.012;2022-09-12T14:34:33;3.70;;;1.23;;
10116;SDS011;5098;48.792;9.012;2022-09-12T14:36:53;2.43;;;1.30;;
10116;SDS011;5098;48.792;9.012;2022-09-12T14:44:30;1.63;;;1.40;;
10116;SDS011;5098;48.792;9.012;2022-09-12T14:46:58;1.87;;;1.33;;
10116;SDS011;5098;48.792;9.012;2022-09-12T14:51:56;1.53;;;1.43;;
10116;SDS011;5098;48.792;9.012;2022-09-12T14:54:44;2.03;;;1.33;;
10116;SDS011;5098;48.792;9.012;2022-09-12T15:00:04;2.90;;;1.50;;
10116;SDS011;5098;48.792;9.012;2022-09-12T15:02:30;2.73;;;1.50;;
10116;SDS011;5098;48.792;9.012;2022-09-12T15:10:02;4.93;;;1.23;;
10116;SDS011;5098;48.792;9.012;2022-09-12T15:12:28;2.23;;;1.40;;
10116;SDS011;5098;48.792;9.012;2022-09-12T15:15:13;1.53;;;1.27;;
10116;SDS011;5098;48.792;9.012;2022-09-12T15:17:40;1.97;;;1.50;;
10116;SDS011;5098;48.792;9.012;2022-09-12T15:20:07;5.57;;;1.97;;
10116;SDS011;5098;48.792;9.012;2022-09-12T15:22:34;4.90;;;1.70;;
10116;SDS011;5098;48.792;9.012;2022-09-12T15:25:01;5.57;;;1.50;;
10116;SDS011;5098;48.792;9.012;2022-09-12T15:27:27;1.63;;;1.30;;
10116;SDS011;5098;48.792;9.012;2022-09-12T15:29:53;3.13;;;1.40;;
10116;SDS011;5098;48.792;9.012;2022-09-12T15:32:26;1.83;;;1.10;;
10116;SDS011;5098;48.792;9.012;2022-09-12T15:34:53;2.47;;;1.67;;
10116;SDS011;5098;48.792;9.012;2022-09-12T15:37:19;2.87;;;1.40;;
10116;SDS011;5098;48.792;9.012;2022-09-12T15:39:46;2.80;;;1.50;;
10116;SDS011;5098;48.792;9.012;2022-09-12T15:42:12;2.43;;;1.20;;
10116;SDS011;5098;48.792;9.012;2022-09-12T15:44:39;1.70;;;1.53;;
10116;SDS011;5098;48.792;9.012;2022-09-12T15:47:07;1.77;;;1.10;;
10116;SDS011;5098;48.792;9.012;2022-09-12T15:49:33;3.20;;;2.23;;
10116;SDS011;5098;48.792;9.012;2022-09-12T15:51:59;2.27;;;1.30;;
10116;SDS011;5098;48.792;9.012;2022-09-12T15:54:25;1.77;;;1.60;;
10116;SDS011;5098;48.792;9.012;2022-09-12T15:56:51;3.00;;;1.60;;
10116;SDS011;5098;48.792;9.012;2022-09-12T15:59:17;1.30;;;1.10;;
10116;SDS011;5098;48.792;9.012;2022-09-12T16:01:43;1.63;;;1.27;;
10116;SDS011;5098;48.792;9.012;2022-09-12T16:04:18;7.47;;;4.90;;
10116;SDS011;5098;48.792;9.012;2022-09-12T16:06:45;1.83;;;1.43;;
10116;SDS011;5098;48.792;9.012;2022-09-12T16:09:11;2.60;;;1.10;;
10116;SDS011;5098;48.792;9.012;2022-09-12T16:11:37;1.30;;;1.20;;
10116;SDS011;5098;48.792;9.012;2022-09-12T16:14:03;1.50;;;1.30;;
10116;SDS011;5098;48.792;9.012;2022-09-12T16:16:30;1.47;;;1.30;;
10116;SDS011;5098;48.792;9.012;2022-09-12T16:18:56;2.60;;;2.00;;
10116;SDS011;5098;48.792;9.012;2022-09-12T16:21:22;1.90;;;1.30;;
10116;SDS011;5098;48.792;9.012;2022-09-12T16:23:48;2.27;;;1.20;;
10116;SDS011;5098;48.792;9.012;2022-09-12T16:26:14;2.00;;;1.50;;
10116;SDS011;5098;48.792;9.012;2022-09-12T16:28:41;2.00;;;1.47;;
10116;SDS011;5098;48.792;9.012;2022-09-12T16:31:07;2.13;;;1.20;;
10116;SDS011;5098;48.792;9.012;2022-09-12T16:33:35;2.07;;;1.00;;
10116;SDS011;5098;48.792;9.012;2022-09-12T16:36:08;2.27;;;1.30;;
10116;SDS011;5098;48.792;9.012;2022-09-12T16:38:41;1.50;;;1.20;;
10116;SDS011;5098;48.792;9.012;2022-09-12T16:41:08;1.83;;;1.30;;
10116;SDS011;5098;48.792;9.012;2022-09-12T16:43:34;2.10;;;1.40;;
10116;SDS011;5098;48.792;9.012;2022-09-12T16:48:27;1.60;;;1.50;;
10116;SDS011;5098;48.792;9.012;2022-09-12T16:50:57;2.27;;;1.90;;
10116;SDS011;5098;48.792;9.012;2022-09-12T16:53:24;2.33;;;1.60;;
10116;SDS011;5098;48.792;9.012;2022-09-12T16:55:50;1.60;;;1.23;;
10116;SDS011;5098;48.792;9.012;2022-09-12T16:58:16;1.70;;;1.40;;
10116;SDS011;5098;48.792;9.012;2022-09-12T17:00:42;2.07;;;1.20;;
10116;SDS011;5098;48.792;9.012;2022-09-12T17:03:09;3.40;;;1.47;;
10116;SDS011;5098;48.792;9.012;2022-09-12T17:05:35;2.07;;;1.80;;
10116;SDS011;5098;48.792;9.012;2022-09-12T17:08:01;2.37;;;1.67;;
10116;SDS011;5098;48.792;9.012;2022-09-12T17:10:27;2.07;;;1.53;;
10116;SDS011;5098;48.792;9.012;2022-09-12T17:12:54;1.70;;;1.50;;
10116;SDS011;5098;48.792;9.012;2022-09-12T17:15:21;2.13;;;1.60;;
10116;SDS011;5098;48.792;9.012;2022-09-12T17:17:47;3.37;;;1.70;;
10116;SDS011;5098;48.792;9.012;2022-09-12T17:20:16;2.73;;;1.67;;
10116;SDS011;5098;48.792;9.012;2022-09-12T17:22:42;2.50;;;1.90;;
10116;SDS011;5098;48.792;9.012;2022-09-12T17:25:08;3.57;;;1.70;;
10116;SDS011;5098;48.792;9.012;2022-09-12T17:27:34;2.33;;;1.93;;
10116;SDS011;5098;48.792;9.012;2022-09-12T17:30:01;3.27;;;1.80;;
10116;SDS011;5098;48.792;9.012;2022-09-12T17:32:27;3.20;;;1.73;;
10116;SDS011;5098;48.792;9.012;2022-09-12T17:34:53;2.83;;;1.80;;
10116;SDS011;5098;48.792;9.012;2022-09-12T17:37:19;7.47;;;1.70;;
10116;SDS011;5098;48.792;9.012;2022-09-12T17:39:45;3.50;;;1.80;;
10116;SDS011;5098;48.792;9.012;2022-09-12T17:42:12;3.67;;;2.07;;
10116;SDS011;5098;48.792;9.012;2022-09-12T17:44:38;3.10;;;2.00;;
10116;SDS011;5098;48.792;9.012;2022-09-12T17:47:04;2.47;;;2.00;;
10116;SDS011;5098;48.792;9.012;2022-09-12T17:49:30;2.90;;;2.07;;
10116;SDS011;5098;48.792;9.012;2022-09-12T17:51:57;2.77;;;1.83;;
10116;SDS011;5098;48.792;9.012;2022-09-12T17:54:23;2.53;;;1.90;;
10116;SDS011;5098;48.792;9.012;2022-09-12T17:56:49;4.00;;;2.10;;
10116;SDS011;5098;48.792;9.012;2022-09-12T17:59:19;4.57;;;2.03;;
10116;SDS011;5098;48.792;9.012;2022-09-12T18:01:47;2.73;;;2.40;;